SLC Intl Airport
, Salt Lake City
Last Weather Update:10/30/2011 11:00:00 PM
Date
ETo
ETc
Rain
Irrigation
Req
Temp
Max
Temp
Min
Temp
Avg
Avg RH
Avg Wind
Avg Solar
inches
inches
incehs
inches
F
F
F
%
%
watts/m2
9/1/2011 0.25" 0.17" 0.00" 0.17" 83.0° 59.2° 72.0° 37.1% 4.8 MPH 313.3w/m2
9/2/2011 0.23" 0.16" 0.00" 0.16" 80.3° 58.2° 69.4° 35.2% 3.5 MPH 311.8w/m2
9/3/2011 0.23" 0.16" 0.00" 0.16" 83.2° 54.3° 69.5° 33.3% 3.1 MPH 315.1w/m2
9/4/2011 0.23" 0.16" 0.00" 0.16" 87.6° 55.9° 71.7° 32.8% 3.2 MPH 309.9w/m2
9/5/2011 0.19" 0.13" 0.00" 0.13" 82.1° 63.4° 72.9° 33.8% 6.1 MPH 158.6w/m2
9/6/2011 0.22" 0.15" 0.00" 0.15" 79.6° 63.7° 71.6° 43.2% 5.6 MPH 261.0w/m2
9/7/2011 0.22" 0.15" 0.00" 0.15" 82.5° 61.3° 72.6° 37.7% 4.4 MPH 290.8w/m2
9/8/2011 0.23" 0.16" 0.00" 0.16" 82.9° 64.3° 73.9° 33.2% 4.7 MPH 288.2w/m2
9/9/2011 0.21" 0.14" 0.00" 0.14" 86.9° 60.3° 73.0° 37.8% 3.4 MPH 264.7w/m2
9/10/2011 0.22" 0.15" 0.12" 0.05" 84.2° 62.6° 71.1° 39.7% 6.2 MPH 248.0w/m2
9/11/2011 0.22" 0.15" 0.00" 0.15" 81.3° 61.7° 69.7° 44.0% 8.4 MPH 219.1w/m2
9/12/2011 0.21" 0.14" 0.00" 0.14" 82.1° 60.1° 69.7° 46.7% 6.0 MPH 262.3w/m2
9/13/2011 0.21" 0.14" 0.00" 0.14" 80.5° 59.8° 70.3° 38.3% 4.7 MPH 278.1w/m2
9/14/2011 0.19" 0.13" 0.00" 0.13" 81.1° 59.8° 69.9° 40.0% 4.5 MPH 251.0w/m2
9/15/2011 0.21" 0.13" 0.00" 0.13" 79.1° 61.7° 69.7° 44.4% 6.0 MPH 271.8w/m2
9/16/2011 0.12" 0.08" 0.16" -0.05" 72.3° 58.8° 64.3° 60.9% 6.6 MPH 149.5w/m2
9/17/2011 0.16" 0.10" 0.01" 0.09" 73.0° 55.3° 63.5° 57.3% 5.0 MPH 228.6w/m2
9/18/2011 0.18" 0.12" 0.00" 0.12" 76.3° 53.8° 65.4° 42.3% 4.2 MPH 263.6w/m2
9/19/2011 0.21" 0.14" 0.00" 0.14" 82.5° 55.7° 68.8° 38.3% 5.9 MPH 265.4w/m2
9/20/2011 0.18" 0.12" 0.00" 0.12" 77.7° 54.9° 67.4° 36.8% 3.4 MPH 262.8w/m2
9/21/2011 0.19" 0.12" 0.00" 0.12" 79.5° 55.0° 66.5° 41.8% 3.9 MPH 263.9w/m2
9/22/2011 0.20" 0.13" 0.00" 0.13" 82.1° 54.2° 67.8° 33.7% 4.5 MPH 265.5w/m2
9/23/2011 0.20" 0.12" 0.00" 0.12" 84.4° 55.1° 69.3° 30.8% 4.3 MPH 262.0w/m2
9/24/2011 0.21" 0.13" 0.00" 0.13" 86.5° 55.0° 69.8° 29.5% 4.9 MPH 257.0w/m2
9/25/2011 0.22" 0.14" 0.00" 0.14" 86.9° 58.2° 71.4° 30.8% 5.9 MPH 252.8w/m2
9/26/2011 0.19" 0.11" 0.00" 0.11" 79.5° 60.4° 70.5° 39.0% 3.9 MPH 249.4w/m2
9/27/2011 0.20" 0.12" 0.00" 0.12" 84.6° 56.5° 70.1° 37.3% 4.5 MPH 247.9w/m2
9/28/2011 0.19" 0.12" 0.00" 0.12" 85.0° 58.8° 71.3° 36.6% 4.2 MPH 244.3w/m2
9/29/2011 0.18" 0.11" 0.00" 0.11" 84.4° 57.0° 70.3° 39.2% 3.0 MPH 244.3w/m2
9/30/2011 0.20" 0.12" 0.00" 0.12" 90.5° 58.8° 73.9° 31.3% 4.3 MPH 232.7w/m2
Totals: 6.09" 3.96" 0.29" 3.72" 90.5° 53.8° 69.9° 38.8% 4.8 MPH 257.8w/m2